sensor_id;sensor_type;location;lat;lon;timestamp;temperature;humidity
76936;DHT22;65881;52.438;16.744;2023-12-14T00:01:58;2.80;99.90
76936;DHT22;65881;52.438;16.744;2023-12-14T00:04:25;2.80;99.90
76936;DHT22;65881;52.438;16.744;2023-12-14T00:06:51;2.80;99.90
76936;DHT22;65881;52.438;16.744;2023-12-14T00:09:32;2.80;99.90
76936;DHT22;65881;52.438;16.744;2023-12-14T00:11:57;2.70;99.90
76936;DHT22;65881;52.438;16.744;2023-12-14T00:14:23;2.70;99.90
76936;DHT22;65881;52.438;16.744;2023-12-14T00:16:49;2.70;99.90
76936;DHT22;65881;52.438;16.744;2023-12-14T00:19:15;2.80;99.90
76936;DHT22;65881;52.438;16.744;2023-12-14T00:21:41;2.70;99.90
76936;DHT22;65881;52.438;16.744;2023-12-14T00:24:07;2.80;99.90
76936;DHT22;65881;52.438;16.744;2023-12-14T00:26:34;2.70;99.90
76936;DHT22;65881;52.438;16.744;2023-12-14T00:29:13;2.80;99.90
76936;DHT22;65881;52.438;16.744;2023-12-14T00:31:38;2.80;99.90
76936;DHT22;65881;52.438;16.744;2023-12-14T00:34:11;2.70;99.90
76936;DHT22;65881;52.438;16.744;2023-12-14T00:36:52;2.70;99.90
76936;DHT22;65881;52.438;16.744;2023-12-14T00:39:22;2.70;99.90
76936;DHT22;65881;52.438;16.744;2023-12-14T00:41:52;2.70;99.90
76936;DHT22;65881;52.438;16.744;2023-12-14T00:44:30;2.70;99.90
76936;DHT22;65881;52.438;16.744;2023-12-14T00:46:56;2.70;99.90
76936;DHT22;65881;52.438;16.744;2023-12-14T00:49:23;2.70;99.90
76936;DHT22;65881;52.438;16.744;2023-12-14T00:51:49;2.70;99.90
76936;DHT22;65881;52.438;16.744;2023-12-14T00:54:15;2.70;99.90
76936;DHT22;65881;52.438;16.744;2023-12-14T00:56:41;2.70;99.90
76936;DHT22;65881;52.438;16.744;2023-12-14T00:59:07;2.70;99.90
76936;DHT22;65881;52.438;16.744;2023-12-14T01:01:36;2.70;99.90
76936;DHT22;65881;52.438;16.744;2023-12-14T01:04:02;2.70;99.90
76936;DHT22;65881;52.438;16.744;2023-12-14T01:06:32;2.70;99.90
76936;DHT22;65881;52.438;16.744;2023-12-14T01:09:02;2.70;99.90
76936;DHT22;65881;52.438;16.744;2023-12-14T01:11:28;2.70;99.90
76936;DHT22;65881;52.438;16.744;2023-12-14T01:13:56;2.70;99.90
76936;DHT22;65881;52.438;16.744;2023-12-14T01:16:26;2.70;99.90
76936;DHT22;65881;52.438;16.744;2023-12-14T01:18:52;2.70;99.90
76936;DHT22;65881;52.438;16.744;2023-12-14T01:21:18;2.70;99.90
76936;DHT22;65881;52.438;16.744;2023-12-14T01:23:45;2.70;99.90
76936;DHT22;65881;52.438;16.744;2023-12-14T01:26:12;2.70;99.90
76936;DHT22;65881;52.438;16.744;2023-12-14T01:28:55;2.60;99.90
76936;DHT22;65881;52.438;16.744;2023-12-14T01:31:20;2.60;99.90
76936;DHT22;65881;52.438;16.744;2023-12-14T01:33:49;2.60;99.90
76936;DHT22;65881;52.438;16.744;2023-12-14T01:36:24;2.50;99.90
76936;DHT22;65881;52.438;16.744;2023-12-14T01:39:11;2.50;99.90
76936;DHT22;65881;52.438;16.744;2023-12-14T01:41:41;2.50;99.90
76936;DHT22;65881;52.438;16.744;2023-12-14T01:44:07;2.50;99.90
76936;DHT22;65881;52.438;16.744;2023-12-14T01:46:32;2.50;99.90
76936;DHT22;65881;52.438;16.744;2023-12-14T01:48:58;2.50;99.90
76936;DHT22;65881;52.438;16.744;2023-12-14T01:51:52;2.50;99.90
76936;DHT22;65881;52.438;16.744;2023-12-14T01:54:18;2.40;99.90
76936;DHT22;65881;52.438;16.744;2023-12-14T01:56:46;2.40;99.90
76936;DHT22;65881;52.438;16.744;2023-12-14T01:59:12;2.40;99.90
76936;DHT22;65881;52.438;16.744;2023-12-14T02:01:43;2.40;99.90
76936;DHT22;65881;52.438;16.744;2023-12-14T02:04:13;2.40;99.90
76936;DHT22;65881;52.438;16.744;2023-12-14T02:07:03;2.40;99.90
76936;DHT22;65881;52.438;16.744;2023-12-14T02:09:35;2.40;99.90
76936;DHT22;65881;52.438;16.744;2023-12-14T02:12:01;2.40;99.90
76936;DHT22;65881;52.438;16.744;2023-12-14T02:14:26;2.40;99.90
76936;DHT22;65881;52.438;16.744;2023-12-14T02:16:52;2.30;99.90
76936;DHT22;65881;52.438;16.744;2023-12-14T02:19:18;2.30;99.90
76936;DHT22;65881;52.438;16.744;2023-12-14T02:21:50;2.30;99.90
76936;DHT22;65881;52.438;16.744;2023-12-14T02:24:18;2.30;99.90
76936;DHT22;65881;52.438;16.744;2023-12-14T02:26:47;2.30;99.90
76936;DHT22;65881;52.438;16.744;2023-12-14T02:29:15;2.20;99.90
76936;DHT22;65881;52.438;16.744;2023-12-14T02:31:41;2.20;99.90
76936;DHT22;65881;52.438;16.744;2023-12-14T02:34:14;2.30;99.90
76936;DHT22;65881;52.438;16.744;2023-12-14T02:36:40;2.20;99.90
76936;DHT22;65881;52.438;16.744;2023-12-14T02:39:06;2.20;99.90
76936;DHT22;65881;52.438;16.744;2023-12-14T02:41:33;2.30;99.90
76936;DHT22;65881;52.438;16.744;2023-12-14T02:43:58;2.20;99.90
76936;DHT22;65881;52.438;16.744;2023-12-14T02:46:24;2.30;99.90
76936;DHT22;65881;52.438;16.744;2023-12-14T02:49:05;2.20;99.90
76936;DHT22;65881;52.438;16.744;2023-12-14T02:51:31;2.30;99.90
76936;DHT22;65881;52.438;16.744;2023-12-14T02:54:05;2.20;99.90
76936;DHT22;65881;52.438;16.744;2023-12-14T02:56:31;2.20;99.90
76936;DHT22;65881;52.438;16.744;2023-12-14T02:58:57;2.20;99.90
76936;DHT22;65881;52.438;16.744;2023-12-14T03:01:31;2.20;99.90
76936;DHT22;65881;52.438;16.744;2023-12-14T03:03:57;2.20;99.90
76936;DHT22;65881;52.438;16.744;2023-12-14T03:06:24;2.20;99.90
76936;DHT22;65881;52.438;16.744;2023-12-14T03:08:53;2.10;99.90
76936;DHT22;65881;52.438;16.744;2023-12-14T03:11:23;2.10;99.90
76936;DHT22;65881;52.438;16.744;2023-12-14T03:13:51;2.10;99.90
76936;DHT22;65881;52.438;16.744;2023-12-14T03:16:18;2.10;99.90
76936;DHT22;65881;52.438;16.744;2023-12-14T03:18:44;2.10;99.90
76936;DHT22;65881;52.438;16.744;2023-12-14T03:21:10;2.10;99.90
76936;DHT22;65881;52.438;16.744;2023-12-14T03:23:36;2.10;99.90
76936;DHT22;65881;52.438;16.744;2023-12-14T03:26:03;2.10;99.90
76936;DHT22;65881;52.438;16.744;2023-12-14T03:28:37;2.00;99.90
76936;DHT22;65881;52.438;16.744;2023-12-14T03:31:05;2.00;99.90
76936;DHT22;65881;52.438;16.744;2023-12-14T03:33:30;2.00;99.90
76936;DHT22;65881;52.438;16.744;2023-12-14T03:35:56;2.00;99.90
76936;DHT22;65881;52.438;16.744;2023-12-14T03:38:22;2.00;99.90
76936;DHT22;65881;52.438;16.744;2023-12-14T03:40:48;2.00;99.90
76936;DHT22;65881;52.438;16.744;2023-12-14T03:43:14;2.00;99.90
76936;DHT22;65881;52.438;16.744;2023-12-14T03:45:40;2.00;99.90
76936;DHT22;65881;52.438;16.744;2023-12-14T03:48:07;2.00;99.90
76936;DHT22;65881;52.438;16.744;2023-12-14T03:50:32;2.00;99.90
76936;DHT22;65881;52.438;16.744;2023-12-14T03:53:00;1.90;99.90
76936;DHT22;65881;52.438;16.744;2023-12-14T03:55:29;1.90;99.90
76936;DHT22;65881;52.438;16.744;2023-12-14T03:57:55;1.90;99.90
76936;DHT22;65881;52.438;16.744;2023-12-14T04:00:34;1.90;99.90
76936;DHT22;65881;52.438;16.744;2023-12-14T04:03:02;1.90;99.90
76936;DHT22;65881;52.438;16.744;2023-12-14T04:05:28;1.80;99.90
76936;DHT22;65881;52.438;16.744;2023-12-14T04:08:00;1.80;99.90
76936;DHT22;65881;52.438;16.744;2023-12-14T04:10:27;1.80;99.90
76936;DHT22;65881;52.438;16.744;2023-12-14T04:12:53;1.80;99.90
76936;DHT22;65881;52.438;16.744;2023-12-14T04:15:26;1.80;99.90
76936;DHT22;65881;52.438;16.744;2023-12-14T04:18:00;1.80;99.90
76936;DHT22;65881;52.438;16.744;2023-12-14T04:20:25;1.70;99.90
76936;DHT22;65881;52.438;16.744;2023-12-14T04:22:51;1.70;99.90
76936;DHT22;65881;52.438;16.744;2023-12-14T04:25:23;1.80;99.90
76936;DHT22;65881;52.438;16.744;2023-12-14T04:27:50;1.70;99.90
76936;DHT22;65881;52.438;16.744;2023-12-14T04:30:16;1.70;99.90
76936;DHT22;65881;52.438;16.744;2023-12-14T04:32:42;1.70;99.90
76936;DHT22;65881;52.438;16.744;2023-12-14T04:35:08;1.70;99.90
76936;DHT22;65881;52.438;16.744;2023-12-14T04:37:34;1.70;99.90
76936;DHT22;65881;52.438;16.744;2023-12-14T04:40:02;1.70;99.90
76936;DHT22;65881;52.438;16.744;2023-12-14T04:42:28;1.70;99.90
76936;DHT22;65881;52.438;16.744;2023-12-14T04:44:54;1.70;99.90
76936;DHT22;65881;52.438;16.744;2023-12-14T04:47:20;1.60;99.90
76936;DHT22;65881;52.438;16.744;2023-12-14T04:49:45;1.60;99.90
76936;DHT22;65881;52.438;16.744;2023-12-14T04:52:12;1.60;99.90
76936;DHT22;65881;52.438;16.744;2023-12-14T04:54:39;1.60;99.90
76936;DHT22;65881;52.438;16.744;2023-12-14T04:57:19;1.50;99.90
76936;DHT22;65881;52.438;16.744;2023-12-14T04:59:47;1.60;99.90
76936;DHT22;65881;52.438;16.744;2023-12-14T05:02:12;1.60;99.90
76936;DHT22;65881;52.438;16.744;2023-12-14T05:04:38;1.50;99.90
76936;DHT22;65881;52.438;16.744;2023-12-14T05:07:04;1.50;99.90
76936;DHT22;65881;52.438;16.744;2023-12-14T05:09:30;1.50;99.90
76936;DHT22;65881;52.438;16.744;2023-12-14T05:11:55;1.50;99.90
76936;DHT22;65881;52.438;16.744;2023-12-14T05:14:21;1.40;99.90
76936;DHT22;65881;52.438;16.744;2023-12-14T05:16:47;1.40;99.90
76936;DHT22;65881;52.438;16.744;2023-12-14T05:19:14;1.40;99.90
76936;DHT22;65881;52.438;16.744;2023-12-14T05:21:40;1.40;99.90
76936;DHT22;65881;52.438;16.744;2023-12-14T05:24:06;1.40;99.90
76936;DHT22;65881;52.438;16.744;2023-12-14T05:26:32;1.40;99.90
76936;DHT22;65881;52.438;16.744;2023-12-14T05:28:58;1.40;99.90
76936;DHT22;65881;52.438;16.744;2023-12-14T05:31:24;1.40;99.90
76936;DHT22;65881;52.438;16.744;2023-12-14T05:33:50;1.40;99.90
76936;DHT22;65881;52.438;16.744;2023-12-14T05:36:15;1.40;99.90
76936;DHT22;65881;52.438;16.744;2023-12-14T05:38:50;1.40;99.90
76936;DHT22;65881;52.438;16.744;2023-12-14T05:41:17;1.40;99.90
76936;DHT22;65881;52.438;16.744;2023-12-14T05:43:44;1.40;99.90
76936;DHT22;65881;52.438;16.744;2023-12-14T05:46:22;1.40;99.90
76936;DHT22;65881;52.438;16.744;2023-12-14T05:48:49;1.40;99.90
76936;DHT22;65881;52.438;16.744;2023-12-14T05:51:29;1.40;99.90
76936;DHT22;65881;52.438;16.744;2023-12-14T05:53:55;1.40;99.90
76936;DHT22;65881;52.438;16.744;2023-12-14T05:56:21;1.40;99.90
76936;DHT22;65881;52.438;16.744;2023-12-14T05:58:46;1.40;99.90
76936;DHT22;65881;52.438;16.744;2023-12-14T06:01:12;1.40;99.90
76936;DHT22;65881;52.438;16.744;2023-12-14T06:03:38;1.40;99.90
76936;DHT22;65881;52.438;16.744;2023-12-14T06:06:04;1.30;99.90
76936;DHT22;65881;52.438;16.744;2023-12-14T06:08:29;1.40;99.90
76936;DHT22;65881;52.438;16.744;2023-12-14T06:10:55;1.40;99.90
76936;DHT22;65881;52.438;16.744;2023-12-14T06:13:21;1.40;99.90
76936;DHT22;65881;52.438;16.744;2023-12-14T06:15:47;1.40;99.90
76936;DHT22;65881;52.438;16.744;2023-12-14T06:18:13;1.40;99.90
76936;DHT22;65881;52.438;16.744;2023-12-14T06:20:39;1.40;99.90
76936;DHT22;65881;52.438;16.744;2023-12-14T06:23:06;1.40;99.90
76936;DHT22;65881;52.438;16.744;2023-12-14T06:25:31;1.40;99.90
76936;DHT22;65881;52.438;16.744;2023-12-14T06:27:57;1.40;99.90
76936;DHT22;65881;52.438;16.744;2023-12-14T06:30:23;1.30;99.90
76936;DHT22;65881;52.438;16.744;2023-12-14T06:32:49;1.30;99.90
76936;DHT22;65881;52.438;16.744;2023-12-14T06:35:14;1.20;99.90
76936;DHT22;65881;52.438;16.744;2023-12-14T06:37:41;1.20;99.90
76936;DHT22;65881;52.438;16.744;2023-12-14T06:40:08;1.30;99.90
76936;DHT22;65881;52.438;16.744;2023-12-14T06:42:34;1.30;99.90
76936;DHT22;65881;52.438;16.744;2023-12-14T06:45:02;1.30;99.90
76936;DHT22;65881;52.438;16.744;2023-12-14T06:47:28;1.30;99.90
76936;DHT22;65881;52.438;16.744;2023-12-14T06:49:53;1.30;99.90
76936;DHT22;65881;52.438;16.744;2023-12-14T06:52:19;1.20;99.90
76936;DHT22;65881;52.438;16.744;2023-12-14T06:54:45;1.20;99.90
76936;DHT22;65881;52.438;16.744;2023-12-14T06:57:10;1.20;99.90
76936;DHT22;65881;52.438;16.744;2023-12-14T06:59:36;1.20;99.90
76936;DHT22;65881;52.438;16.744;2023-12-14T07:02:01;1.20;99.90
76936;DHT22;65881;52.438;16.744;2023-12-14T07:04:27;1.20;99.90
76936;DHT22;65881;52.438;16.744;2023-12-14T07:06:53;1.20;99.90
76936;DHT22;65881;52.438;16.744;2023-12-14T07:09:18;1.20;99.90
76936;DHT22;65881;52.438;16.744;2023-12-14T07:11:44;1.20;99.90
76936;DHT22;65881;52.438;16.744;2023-12-14T07:14:10;1.20;99.90
76936;DHT22;65881;52.438;16.744;2023-12-14T07:16:36;1.20;99.90
76936;DHT22;65881;52.438;16.744;2023-12-14T07:19:02;1.20;99.90
76936;DHT22;65881;52.438;16.744;2023-12-14T07:21:27;1.10;99.90
76936;DHT22;65881;52.438;16.744;2023-12-14T07:23:53;1.10;99.90
76936;DHT22;65881;52.438;16.744;2023-12-14T07:26:18;1.10;99.90
76936;DHT22;65881;52.438;16.744;2023-12-14T07:28:44;1.10;99.90
76936;DHT22;65881;52.438;16.744;2023-12-14T07:31:10;1.10;99.90
76936;DHT22;65881;52.438;16.744;2023-12-14T07:33:36;1.20;99.90
76936;DHT22;65881;52.438;16.744;2023-12-14T07:36:01;1.20;99.90
76936;DHT22;65881;52.438;16.744;2023-12-14T07:38:27;1.10;99.90
76936;DHT22;65881;52.438;16.744;2023-12-14T07:40:53;1.10;99.90
76936;DHT22;65881;52.438;16.744;2023-12-14T07:43:18;1.20;99.90
76936;DHT22;65881;52.438;16.744;2023-12-14T07:45:44;1.20;99.90
76936;DHT22;65881;52.438;16.744;2023-12-14T07:48:11;1.20;99.90
76936;DHT22;65881;52.438;16.744;2023-12-14T07:50:37;1.20;99.90
76936;DHT22;65881;52.438;16.744;2023-12-14T07:53:03;1.20;99.90
76936;DHT22;65881;52.438;16.744;2023-12-14T07:55:30;1.20;99.90
76936;DHT22;65881;52.438;16.744;2023-12-14T07:57:57;1.30;99.90
76936;DHT22;65881;52.438;16.744;2023-12-14T08:00:23;1.30;99.90
76936;DHT22;65881;52.438;16.744;2023-12-14T08:02:48;1.40;99.90
76936;DHT22;65881;52.438;16.744;2023-12-14T08:05:16;1.40;99.90
76936;DHT22;65881;52.438;16.744;2023-12-14T08:07:41;1.40;99.90
76936;DHT22;65881;52.438;16.744;2023-12-14T08:10:07;1.40;99.90
76936;DHT22;65881;52.438;16.744;2023-12-14T08:12:33;1.40;99.90
76936;DHT22;65881;52.438;16.744;2023-12-14T08:14:59;1.40;99.90
76936;DHT22;65881;52.438;16.744;2023-12-14T08:17:24;1.40;99.90
76936;DHT22;65881;52.438;16.744;2023-12-14T08:19:50;1.40;99.90
76936;DHT22;65881;52.438;16.744;2023-12-14T08:22:16;1.40;99.90
76936;DHT22;65881;52.438;16.744;2023-12-14T08:24:42;1.40;99.90
76936;DHT22;65881;52.438;16.744;2023-12-14T08:27:07;1.40;99.90
76936;DHT22;65881;52.438;16.744;2023-12-14T08:29:33;1.40;99.90
76936;DHT22;65881;52.438;16.744;2023-12-14T08:31:59;1.40;99.90
76936;DHT22;65881;52.438;16.744;2023-12-14T08:34:25;1.40;99.90
76936;DHT22;65881;52.438;16.744;2023-12-14T08:36:51;1.40;99.90
76936;DHT22;65881;52.438;16.744;2023-12-14T08:39:17;1.40;99.90
76936;DHT22;65881;52.438;16.744;2023-12-14T08:41:43;1.50;99.90
76936;DHT22;65881;52.438;16.744;2023-12-14T08:44:10;1.50;99.90
76936;DHT22;65881;52.438;16.744;2023-12-14T08:46:43;1.50;99.90
76936;DHT22;65881;52.438;16.744;2023-12-14T08:49:10;1.50;99.90
76936;DHT22;65881;52.438;16.744;2023-12-14T08:51:36;1.50;99.90
76936;DHT22;65881;52.438;16.744;2023-12-14T08:54:02;1.60;99.90
76936;DHT22;65881;52.438;16.744;2023-12-14T08:56:28;1.60;99.90
76936;DHT22;65881;52.438;16.744;2023-12-14T08:58:53;1.60;99.90
76936;DHT22;65881;52.438;16.744;2023-12-14T09:01:20;1.60;99.90
76936;DHT22;65881;52.438;16.744;2023-12-14T09:03:49;1.60;99.90
76936;DHT22;65881;52.438;16.744;2023-12-14T09:06:16;1.60;99.90
76936;DHT22;65881;52.438;16.744;2023-12-14T09:08:43;1.60;99.90
76936;DHT22;65881;52.438;16.744;2023-12-14T09:11:09;1.60;99.90
76936;DHT22;65881;52.438;16.744;2023-12-14T09:13:34;1.60;99.90
76936;DHT22;65881;52.438;16.744;2023-12-14T09:16:00;1.60;99.90
76936;DHT22;65881;52.438;16.744;2023-12-14T09:18:25;1.60;99.90
76936;DHT22;65881;52.438;16.744;2023-12-14T09:20:51;1.60;99.90
76936;DHT22;65881;52.438;16.744;2023-12-14T09:23:17;1.60;99.90
76936;DHT22;65881;52.438;16.744;2023-12-14T09:25:47;1.60;99.90
76936;DHT22;65881;52.438;16.744;2023-12-14T09:28:12;1.60;99.90
76936;DHT22;65881;52.438;16.744;2023-12-14T09:30:38;1.60;99.90
76936;DHT22;65881;52.438;16.744;2023-12-14T09:33:04;1.60;99.90
76936;DHT22;65881;52.438;16.744;2023-12-14T09:35:29;1.70;99.90
76936;DHT22;65881;52.438;16.744;2023-12-14T09:37:55;1.60;99.90
76936;DHT22;65881;52.438;16.744;2023-12-14T09:40:22;1.70;99.90
76936;DHT22;65881;52.438;16.744;2023-12-14T09:42:48;1.70;99.90
76936;DHT22;65881;52.438;16.744;2023-12-14T09:45:16;1.70;99.90
76936;DHT22;65881;52.438;16.744;2023-12-14T09:47:42;1.70;99.90
76936;DHT22;65881;52.438;16.744;2023-12-14T09:50:09;1.70;99.90
76936;DHT22;65881;52.438;16.744;2023-12-14T09:52:35;1.70;99.90
76936;DHT22;65881;52.438;16.744;2023-12-14T09:55:01;1.70;99.90
76936;DHT22;65881;52.438;16.744;2023-12-14T09:57:29;1.80;99.90
76936;DHT22;65881;52.438;16.744;2023-12-14T09:59:55;1.70;99.90
76936;DHT22;65881;52.438;16.744;2023-12-14T10:02:25;1.80;99.90
76936;DHT22;65881;52.438;16.744;2023-12-14T10:04:52;1.80;99.90
76936;DHT22;65881;52.438;16.744;2023-12-14T10:07:18;1.80;99.90
76936;DHT22;65881;52.438;16.744;2023-12-14T10:09:44;1.80;99.90
76936;DHT22;65881;52.438;16.744;2023-12-14T10:12:10;1.80;99.90
76936;DHT22;65881;52.438;16.744;2023-12-14T10:14:36;1.90;99.90
76936;DHT22;65881;52.438;16.744;2023-12-14T10:17:18;1.90;99.90
76936;DHT22;65881;52.438;16.744;2023-12-14T10:19:45;1.90;99.90
76936;DHT22;65881;52.438;16.744;2023-12-14T10:22:13;1.80;99.90
76936;DHT22;65881;52.438;16.744;2023-12-14T10:24:46;1.80;99.90
76936;DHT22;65881;52.438;16.744;2023-12-14T10:27:13;1.80;99.90
76936;DHT22;65881;52.438;16.744;2023-12-14T10:29:39;1.80;99.90
76936;DHT22;65881;52.438;16.744;2023-12-14T10:32:06;1.80;99.90
76936;DHT22;65881;52.438;16.744;2023-12-14T10:34:36;1.80;99.90
76936;DHT22;65881;52.438;16.744;2023-12-14T10:37:05;1.80;99.90
76936;DHT22;65881;52.438;16.744;2023-12-14T10:39:31;1.80;99.90
76936;DHT22;65881;52.438;16.744;2023-12-14T10:41:58;1.80;99.90
76936;DHT22;65881;52.438;16.744;2023-12-14T10:44:26;1.80;99.90
76936;DHT22;65881;52.438;16.744;2023-12-14T10:46:58;1.80;99.90
76936;DHT22;65881;52.438;16.744;2023-12-14T10:49:25;1.90;99.90
76936;DHT22;65881;52.438;16.744;2023-12-14T10:51:52;1.90;99.90
76936;DHT22;65881;52.438;16.744;2023-12-14T10:54:21;1.90;99.90
76936;DHT22;65881;52.438;16.744;2023-12-14T10:56:46;1.90;99.90
76936;DHT22;65881;52.438;16.744;2023-12-14T10:59:15;1.90;99.90
76936;DHT22;65881;52.438;16.744;2023-12-14T11:01:41;1.90;99.90
76936;DHT22;65881;52.438;16.744;2023-12-14T11:04:07;2.00;99.90
76936;DHT22;65881;52.438;16.744;2023-12-14T11:06:38;2.00;99.90
76936;DHT22;65881;52.438;16.744;2023-12-14T11:09:06;2.00;99.90
76936;DHT22;65881;52.438;16.744;2023-12-14T11:11:40;2.00;99.90
76936;DHT22;65881;52.438;16.744;2023-12-14T11:14:08;2.00;99.90
76936;DHT22;65881;52.438;16.744;2023-12-14T11:16:38;2.00;99.90
76936;DHT22;65881;52.438;16.744;2023-12-14T11:21:48;2.00;99.90
76936;DHT22;65881;52.438;16.744;2023-12-14T11:24:14;2.00;99.90
76936;DHT22;65881;52.438;16.744;2023-12-14T11:26:42;2.10;99.90
76936;DHT22;65881;52.438;16.744;2023-12-14T11:29:08;2.00;99.90
76936;DHT22;65881;52.438;16.744;2023-12-14T11:31:34;2.00;99.90
76936;DHT22;65881;52.438;16.744;2023-12-14T11:34:00;2.10;99.90
76936;DHT22;65881;52.438;16.744;2023-12-14T11:36:28;2.10;99.90
76936;DHT22;65881;52.438;16.744;2023-12-14T11:38:54;2.10;99.90
76936;DHT22;65881;52.438;16.744;2023-12-14T11:41:23;2.10;99.90
76936;DHT22;65881;52.438;16.744;2023-12-14T11:43:51;2.10;99.90
76936;DHT22;65881;52.438;16.744;2023-12-14T11:46:17;2.10;99.90
76936;DHT22;65881;52.438;16.744;2023-12-14T11:48:47;2.10;99.90
76936;DHT22;65881;52.438;16.744;2023-12-14T11:51:16;2.10;99.90
76936;DHT22;65881;52.438;16.744;2023-12-14T11:53:46;2.20;99.90
76936;DHT22;65881;52.438;16.744;2023-12-14T11:56:18;2.20;99.90
76936;DHT22;65881;52.438;16.744;2023-12-14T11:58:44;2.20;99.90
76936;DHT22;65881;52.438;16.744;2023-12-14T12:01:18;2.20;99.90
76936;DHT22;65881;52.438;16.744;2023-12-14T12:03:45;2.30;99.90
76936;DHT22;65881;52.438;16.744;2023-12-14T12:06:27;2.30;99.90
76936;DHT22;65881;52.438;16.744;2023-12-14T12:08:56;2.30;99.90
76936;DHT22;65881;52.438;16.744;2023-12-14T12:11:24;2.30;99.90
76936;DHT22;65881;52.438;16.744;2023-12-14T12:13:54;2.30;99.90
76936;DHT22;65881;52.438;16.744;2023-12-14T12:16:24;2.30;99.90
76936;DHT22;65881;52.438;16.744;2023-12-14T12:19:21;2.20;99.90
76936;DHT22;65881;52.438;16.744;2023-12-14T12:21:47;2.20;99.90
76936;DHT22;65881;52.438;16.744;2023-12-14T12:24:13;2.10;99.90
76936;DHT22;65881;52.438;16.744;2023-12-14T12:26:38;2.10;99.90
76936;DHT22;65881;52.438;16.744;2023-12-14T12:29:04;2.10;99.90
76936;DHT22;65881;52.438;16.744;2023-12-14T12:31:31;2.10;99.90
76936;DHT22;65881;52.438;16.744;2023-12-14T12:33:58;2.00;99.90
76936;DHT22;65881;52.438;16.744;2023-12-14T12:36:24;2.00;99.90
76936;DHT22;65881;52.438;16.744;2023-12-14T12:38:49;2.00;99.90
76936;DHT22;65881;52.438;16.744;2023-12-14T12:41:15;1.90;99.90
76936;DHT22;65881;52.438;16.744;2023-12-14T12:43:41;1.90;99.90
76936;DHT22;65881;52.438;16.744;2023-12-14T12:46:07;1.90;99.90
76936;DHT22;65881;52.438;16.744;2023-12-14T12:48:32;1.90;99.90
76936;DHT22;65881;52.438;16.744;2023-12-14T12:50:58;1.80;99.90
76936;DHT22;65881;52.438;16.744;2023-12-14T12:53:23;1.80;99.90
76936;DHT22;65881;52.438;16.744;2023-12-14T12:55:49;1.90;99.90
76936;DHT22;65881;52.438;16.744;2023-12-14T12:58:15;1.80;99.90
76936;DHT22;65881;52.438;16.744;2023-12-14T13:00:41;1.80;99.90
76936;DHT22;65881;52.438;16.744;2023-12-14T13:03:06;1.80;99.90
76936;DHT22;65881;52.438;16.744;2023-12-14T13:05:32;1.80;99.90
76936;DHT22;65881;52.438;16.744;2023-12-14T13:07:58;1.80;99.90
76936;DHT22;65881;52.438;16.744;2023-12-14T13:10:23;1.80;99.90
76936;DHT22;65881;52.438;16.744;2023-12-14T13:12:53;1.80;99.90
76936;DHT22;65881;52.438;16.744;2023-12-14T13:15:18;1.80;99.90
76936;DHT22;65881;52.438;16.744;2023-12-14T13:17:44;1.80;99.90
76936;DHT22;65881;52.438;16.744;2023-12-14T13:20:10;1.80;99.90
76936;DHT22;65881;52.438;16.744;2023-12-14T13:22:35;1.70;99.90
76936;DHT22;65881;52.438;16.744;2023-12-14T13:25:01;1.70;99.90
76936;DHT22;65881;52.438;16.744;2023-12-14T13:27:28;1.70;99.90
76936;DHT22;65881;52.438;16.744;2023-12-14T13:29:54;1.70;99.90
76936;DHT22;65881;52.438;16.744;2023-12-14T13:32:19;1.70;99.90
76936;DHT22;65881;52.438;16.744;2023-12-14T13:34:45;1.70;99.90
76936;DHT22;65881;52.438;16.744;2023-12-14T13:37:11;1.60;99.90
76936;DHT22;65881;52.438;16.744;2023-12-14T13:39:36;1.60;99.90
76936;DHT22;65881;52.438;16.744;2023-12-14T13:42:06;1.70;99.90
76936;DHT22;65881;52.438;16.744;2023-12-14T13:44:34;1.70;99.90
76936;DHT22;65881;52.438;16.744;2023-12-14T13:47:03;1.70;99.90
76936;DHT22;65881;52.438;16.744;2023-12-14T13:49:29;1.60;99.90
76936;DHT22;65881;52.438;16.744;2023-12-14T13:51:55;1.60;99.90
76936;DHT22;65881;52.438;16.744;2023-12-14T13:54:20;1.60;99.90
76936;DHT22;65881;52.438;16.744;2023-12-14T13:56:46;1.60;99.90
76936;DHT22;65881;52.438;16.744;2023-12-14T13:59:12;1.60;99.90
76936;DHT22;65881;52.438;16.744;2023-12-14T14:01:37;1.50;99.90
76936;DHT22;65881;52.438;16.744;2023-12-14T14:04:04;1.60;99.90
76936;DHT22;65881;52.438;16.744;2023-12-14T14:06:29;1.50;99.90
76936;DHT22;65881;52.438;16.744;2023-12-14T14:08:56;1.50;99.90
76936;DHT22;65881;52.438;16.744;2023-12-14T14:11:22;1.50;99.90
76936;DHT22;65881;52.438;16.744;2023-12-14T14:13:48;1.50;99.90
76936;DHT22;65881;52.438;16.744;2023-12-14T14:16:14;1.50;99.90
76936;DHT22;65881;52.438;16.744;2023-12-14T14:18:39;1.50;99.90
76936;DHT22;65881;52.438;16.744;2023-12-14T14:21:05;1.50;99.90
76936;DHT22;65881;52.438;16.744;2023-12-14T14:23:34;1.50;99.90
76936;DHT22;65881;52.438;16.744;2023-12-14T14:26:00;1.40;99.90
76936;DHT22;65881;52.438;16.744;2023-12-14T14:28:25;1.40;99.90
76936;DHT22;65881;52.438;16.744;2023-12-14T14:30:51;1.40;99.90
76936;DHT22;65881;52.438;16.744;2023-12-14T14:33:17;1.40;99.90
76936;DHT22;65881;52.438;16.744;2023-12-14T14:35:47;1.40;99.90
76936;DHT22;65881;52.438;16.744;2023-12-14T14:38:13;1.40;99.90
76936;DHT22;65881;52.438;16.744;2023-12-14T14:40:40;1.40;99.90
76936;DHT22;65881;52.438;16.744;2023-12-14T14:43:07;1.30;99.90
76936;DHT22;65881;52.438;16.744;2023-12-14T14:45:33;1.40;99.90
76936;DHT22;65881;52.438;16.744;2023-12-14T14:47:58;1.30;99.90
76936;DHT22;65881;52.438;16.744;2023-12-14T14:50:24;1.30;99.90
76936;DHT22;65881;52.438;16.744;2023-12-14T14:52:50;1.30;99.90
76936;DHT22;65881;52.438;16.744;2023-12-14T14:55:15;1.20;99.90
76936;DHT22;65881;52.438;16.744;2023-12-14T14:57:41;1.60;99.90
76936;DHT22;65881;52.438;16.744;2023-12-14T15:00:07;1.60;99.90
76936;DHT22;65881;52.438;16.744;2023-12-14T15:02:33;1.50;99.90
76936;DHT22;65881;52.438;16.744;2023-12-14T15:04:59;1.40;99.90
76936;DHT22;65881;52.438;16.744;2023-12-14T15:07:25;1.30;99.90
76936;DHT22;65881;52.438;16.744;2023-12-14T15:09:50;1.20;99.90
76936;DHT22;65881;52.438;16.744;2023-12-14T15:12:16;1.20;99.90
76936;DHT22;65881;52.438;16.744;2023-12-14T15:14:41;1.20;99.90
76936;DHT22;65881;52.438;16.744;2023-12-14T15:17:09;1.20;99.90
76936;DHT22;65881;52.438;16.744;2023-12-14T15:19:35;1.20;99.90
76936;DHT22;65881;52.438;16.744;2023-12-14T15:22:01;1.10;99.90
76936;DHT22;65881;52.438;16.744;2023-12-14T15:24:27;1.10;99.90
76936;DHT22;65881;52.438;16.744;2023-12-14T15:26:52;1.10;99.90
76936;DHT22;65881;52.438;16.744;2023-12-14T15:29:18;1.10;99.90
76936;DHT22;65881;52.438;16.744;2023-12-14T15:31:43;1.10;99.90
76936;DHT22;65881;52.438;16.744;2023-12-14T15:34:09;1.10;99.90